Time;durP1;ratioP1;P1;durP2;ratioP2;P2;SDS_P1;SDS_P2;PMS_P1;PMS_P2;Temp;Humidity;BMP_temperature;BMP_pressure;BME280_temperature;BME280_humidity;BME280_pressure;Samples;Min_cycle;Max_cycle;Signal;HPM_P1;HPM_P2
2022/08/27 00:02:00;;;;;;;15.65;13.98;;;;;;;27.68;50.90;99579.78;4207593;28;20264;-66
2022/08/27 00:04:02;;;;;;;16.80;14.10;;;;;;;27.74;50.62;99584.94;4207182;28;20230;-66
2022/08/27 00:06:04;;;;;;;15.57;13.93;;;;;;;27.73;50.30;99596.16;4206577;28;20315;-66
2022/08/27 00:08:09;;;;;;;16.20;14.30;;;;;;;27.63;51.03;99592.38;4210526;28;20599;-66
2022/08/27 00:10:16;;;;;;;16.38;14.68;;;;;;;27.71;50.64;99593.69;4209143;28;20619;-65
2022/08/27 00:12:17;;;;;;;15.95;14.30;;;;;;;27.84;50.62;99592.31;4211985;28;20226;-66
2022/08/27 00:14:19;;;;;;;17.17;14.85;;;;;;;27.72;50.36;99591.78;4209169;28;20234;-65
2022/08/27 00:16:22;;;;;;;16.40;14.70;;;;;;;27.26;51.46;99598.94;4210059;28;20231;-65
2022/08/27 00:18:25;;;;;;;17.48;15.65;;;;;;;27.78;50.39;99587.94;4211195;28;20317;-66
2022/08/27 00:20:27;;;;;;;17.60;15.80;;;;;;;27.41;51.52;99586.34;4197200;28;20227;-65
2022/08/27 00:22:28;;;;;;;18.77;16.80;;;;;;;27.19;52.18;99582.00;4213337;28;20348;-66
2022/08/27 00:24:30;;;;;;;17.98;16.08;;;;;;;27.15;52.03;99571.94;4207209;28;20219;-66
2022/08/27 00:26:32;;;;;;;18.02;16.23;;;;;;;27.44;51.51;99561.25;4207994;28;20292;-66
2022/08/27 00:28:34;;;;;;;18.08;15.23;;;;;;;26.62;53.40;99562.06;4211292;28;20223;-65
2022/08/27 00:30:36;;;;;;;18.30;16.35;;;;;;;27.55;51.74;99557.41;4210342;28;20230;-66
2022/08/27 00:32:41;;;;;;;17.02;14.77;;;;;;;26.92;52.85;99576.81;4207154;28;20300;-66
2022/08/27 00:34:42;;;;;;;18.75;16.75;;;;;;;27.48;51.64;99575.16;4209769;28;20273;-65
2022/08/27 00:36:44;;;;;;;18.17;16.02;;;;;;;27.93;50.88;99576.16;4210619;28;20226;-66
2022/08/27 00:38:46;;;;;;;19.45;16.38;;;;;;;27.44;51.60;99572.16;4213898;28;20238;-65
2022/08/27 00:40:54;;;;;;;20.80;17.10;;;;;;;27.75;50.80;99566.63;4212249;28;20222;-66
2022/08/27 00:42:56;;;;;;;18.52;16.23;;;;;;;27.08;52.62;99573.03;4208097;28;20237;-66
2022/08/27 00:44:58;;;;;;;19.98;17.00;;;;;;;27.27;52.30;99561.53;4208690;28;20222;-65
2022/08/27 00:47:05;;;;;;;19.13;17.05;;;;;;;27.42;51.75;99563.44;4213450;28;20238;-65
2022/08/27 00:49:09;;;;;;;18.20;16.27;;;;;;;26.96;52.57;99556.09;4207908;28;20227;-66
2022/08/27 00:51:10;;;;;;;18.23;16.38;;;;;;;26.90;52.91;99557.97;4213368;28;20748;-65
2022/08/27 00:53:16;;;;;;;18.20;16.27;;;;;;;27.71;51.45;99544.53;4210096;28;20258;-65
2022/08/27 00:55:29;;;;;;;19.23;17.15;;;;;;;27.95;50.66;99552.09;4210379;28;20241;-66
2022/08/27 00:57:34;;;;;;;19.60;17.50;;;;;;;28.44;50.06;99548.56;4212414;28;20275;-65
2022/08/27 00:59:37;;;;;;;21.10;18.95;;;;;;;28.45;49.58;99557.59;4210493;28;20624;-67
2022/08/27 01:02:17;;;;;;;20.15;17.90;;;;;;;28.36;49.92;99563.66;4208784;28;20234;-65
2022/08/27 01:04:04;;;;;;;19.58;17.67;;;;;;;27.88;50.48;99560.59;4212100;28;20584;-66
2022/08/27 01:06:11;;;;;;;19.60;17.08;;;;;;;27.52;51.40;99557.94;4207983;28;20241;-66
2022/08/27 01:08:21;;;;;;;20.35;18.15;;;;;;;28.05;50.48;99554.75;4210734;28;20253;-66
2022/08/27 01:10:26;;;;;;;19.10;17.10;;;;;;;27.13;52.24;99555.84;4213936;28;20695;-66
2022/08/27 01:12:31;;;;;;;20.10;17.25;;;;;;;27.54;51.89;99539.38;4205125;28;20226;-65
2022/08/27 01:14:34;;;;;;;19.70;17.70;;;;;;;27.73;50.83;99552.44;4208897;28;20367;-66
2022/08/27 01:16:39;;;;;;;20.08;17.48;;;;;;;27.35;51.66;99554.72;4210449;28;20656;-65
2022/08/27 01:18:42;;;;;;;20.23;17.77;;;;;;;27.30;51.87;99554.69;4208898;28;20649;-64
2022/08/27 01:21:01;;;;;;;18.92;16.92;;;;;;;27.49;51.60;99546.75;4208918;28;20226;-66
2022/08/27 01:23:08;;;;;;;19.48;17.45;;;;;;;28.15;50.34;99545.72;4193696;28;20254;-66
2022/08/27 01:25:13;;;;;;;18.85;16.85;;;;;;;27.91;50.75;99551.84;4197193;28;20238;-66
2022/08/27 01:27:19;;;;;;;21.52;19.20;;;;;;;27.87;50.68;99550.78;4192446;28;20245;-65
2022/08/27 01:29:21;;;;;;;21.02;16.98;;;;;;;27.29;51.63;99562.06;4196330;28;20235;-65
2022/08/27 01:31:23;;;;;;;19.58;17.15;;;;;;;27.67;50.82;99559.84;4192200;28;20246;-66
2022/08/27 01:33:25;;;;;;;21.02;18.55;;;;;;;27.61;51.06;99560.94;4196706;28;20974;-66
2022/08/27 01:35:26;;;;;;;19.25;17.23;;;;;;;27.58;51.06;99559.56;4189902;28;20240;-65
2022/08/27 01:37:29;;;;;;;18.48;16.60;;;;;;;27.92;49.99;99561.69;4192972;28;20245;-65
2022/08/27 01:39:35;;;;;;;19.20;17.20;;;;;;;27.81;50.69;99565.53;4197519;27;20231;-65
2022/08/27 01:41:37;;;;;;;21.45;18.27;;;;;;;27.50;50.45;99568.34;4199977;28;20241;-65
2022/08/27 01:43:40;;;;;;;20.20;18.00;;;;;;;27.25;51.05;99558.28;4208290;28;20237;-66
2022/08/27 01:45:45;;;;;;;22.38;18.17;;;;;;;27.41;51.04;99559.06;4206080;28;20226;-66
2022/08/27 01:47:47;;;;;;;20.98;18.70;;;;;;;26.86;52.24;99562.34;4206875;28;20610;-66
2022/08/27 01:49:49;;;;;;;20.33;18.15;;;;;;;27.05;52.11;99565.34;4207476;28;20647;-67
2022/08/27 01:51:51;;;;;;;21.38;18.67;;;;;;;27.14;52.07;99557.44;4212013;28;20222;-64
2022/08/27 01:53:53;;;;;;;20.73;18.45;;;;;;;27.47;50.87;99555.22;4211963;28;20598;-64
2022/08/27 01:55:56;;;;;;;26.65;19.15;;;;;;;27.20;51.33;99567.28;4210748;28;20311;-65
2022/08/27 01:57:57;;;;;;;23.27;20.83;;;;;;;27.36;51.20;99559.06;4206835;28;20230;-65
2022/08/27 02:00:01;;;;;;;23.55;21.05;;;;;;;27.42;51.30;99552.50;4208274;28;20778;-66
2022/08/27 02:02:04;;;;;;;21.92;19.75;;;;;;;27.71;50.39;99557.38;4208187;28;20710;-65
2022/08/27 02:04:06;;;;;;;24.60;22.10;;;;;;;27.60;50.39;99557.38;4211129;28;20660;-66
2022/08/27 02:06:10;;;;;;;24.10;21.52;;;;;;;27.85;49.98;99552.13;4206812;28;20234;-66
2022/08/27 02:08:14;;;;;;;21.90;19.60;;;;;;;27.35;51.01;99555.53;4206329;28;20245;-66
2022/08/27 02:10:20;;;;;;;21.02;18.75;;;;;;;27.20;50.95;99550.09;4212314;27;20237;-67
2022/08/27 02:12:22;;;;;;;20.33;18.17;;;;;;;27.31;50.54;99553.63;4207694;28;20932;-66
2022/08/27 02:14:24;;;;;;;22.27;20.02;;;;;;;26.70;51.76;99557.97;4204783;28;20235;-66
2022/08/27 02:16:25;;;;;;;21.88;19.58;;;;;;;27.10;51.00;99544.66;4211975;28;20226;-64
2022/08/27 02:18:27;;;;;;;21.15;18.95;;;;;;;27.24;50.84;99545.72;4208986;28;20226;-66
2022/08/27 02:20:30;;;;;;;20.80;18.77;;;;;;;26.81;51.69;99551.44;4211929;28;20612;-66
2022/08/27 02:22:31;;;;;;;23.13;19.50;;;;;;;26.92;51.23;99548.72;4206918;28;20219;-65
2022/08/27 02:24:33;;;;;;;20.40;18.30;;;;;;;26.79;51.97;99539.16;4209575;28;20503;-66
2022/08/27 02:26:36;;;;;;;20.67;18.40;;;;;;;26.70;52.37;99525.25;4210521;28;20238;-66
2022/08/27 02:28:38;;;;;;;20.85;18.65;;;;;;;27.06;51.23;99528.81;4204075;28;20258;-65
2022/08/27 02:30:40;;;;;;;20.17;17.80;;;;;;;27.10;51.39;99536.47;4209111;28;20226;-66
2022/08/27 02:32:42;;;;;;;20.45;18.45;;;;;;;27.26;50.77;99536.16;4205900;28;20219;-64
2022/08/27 02:34:44;;;;;;;21.20;19.00;;;;;;;27.15;51.00;99540.00;4207196;28;20229;-66
2022/08/27 02:36:46;;;;;;;20.67;18.58;;;;;;;27.32;50.35;99536.16;4209242;28;20276;-66
2022/08/27 02:38:48;;;;;;;21.48;19.33;;;;;;;27.50;49.90;99532.84;4208036;28;20707;-65
2022/08/27 02:40:49;;;;;;;23.25;19.50;;;;;;;27.04;51.48;99539.16;4204586;28;21884;-66
2022/08/27 02:42:54;;;;;;;21.42;19.13;;;;;;;27.39;50.17;99533.94;4206519;28;20260;-65
2022/08/27 02:44:56;;;;;;;20.80;18.58;;;;;;;26.40;52.63;99545.91;4208157;28;20238;-65
2022/08/27 02:46:57;;;;;;;21.17;18.88;;;;;;;26.80;51.62;99533.44;4210460;28;20265;-65
2022/08/27 02:48:59;;;;;;;20.30;18.02;;;;;;;27.05;50.95;99534.53;4207878;28;20275;-66
2022/08/27 02:51:01;;;;;;;20.75;18.65;;;;;;;27.29;50.68;99528.50;4210117;28;20229;-66
2022/08/27 02:53:04;;;;;;;20.20;17.95;;;;;;;26.40;52.66;99535.00;4205675;28;20245;-65
2022/08/27 02:55:07;;;;;;;19.80;17.70;;;;;;;26.46;52.62;99535.84;4207173;28;20238;-65
2022/08/27 02:57:09;;;;;;;18.70;16.80;;;;;;;26.18;53.35;99529.75;4211074;28;20735;-65
2022/08/27 02:59:10;;;;;;;18.35;16.55;;;;;;;26.44;52.31;99530.66;4208138;28;20625;-67
2022/08/27 03:01:12;;;;;;;19.88;17.75;;;;;;;26.70;51.66;99525.25;4205274;28;20234;-65
2022/08/27 03:03:14;;;;;;;20.77;18.60;;;;;;;26.37;52.66;99526.53;4207506;28;20817;-66
2022/08/27 03:05:17;;;;;;;20.65;18.55;;;;;;;26.80;51.61;99525.25;4209329;28;20332;-66
2022/08/27 03:07:22;;;;;;;20.48;17.92;;;;;;;27.13;50.61;99533.16;4205392;28;20317;-66
2022/08/27 03:09:24;;;;;;;20.77;18.73;;;;;;;27.22;50.89;99540.53;4210356;28;20290;-66
2022/08/27 03:11:26;;;;;;;19.40;17.45;;;;;;;26.86;51.03;99545.19;4206267;28;20383;-64
2022/08/27 03:13:28;;;;;;;21.45;19.20;;;;;;;26.79;51.69;99530.97;4204866;28;20230;-66
2022/08/27 03:15:30;;;;;;;19.92;17.83;;;;;;;26.13;52.94;99540.66;4205358;28;20233;-66
2022/08/27 03:19:52;;;;;;;19.67;17.67;;;;;;;26.66;51.69;99530.44;4212230;28;20226;-65
2022/08/27 03:21:53;;;;;;;19.55;17.55;;;;;;;26.86;51.31;99534.28;4207803;28;20231;-68
2022/08/27 03:23:55;;;;;;;19.08;17.08;;;;;;;25.65;53.84;99538.00;4206183;28;20276;-68
2022/08/27 03:26:00;;;;;;;21.73;19.42;;;;;;;25.54;54.26;99539.00;4208681;28;20317;-68
2022/08/27 03:28:02;;;;;;;21.17;18.92;;;;;;;26.25;53.32;99516.72;4204399;28;20230;-68
2022/08/27 03:30:10;;;;;;;21.15;19.05;;;;;;;27.56;50.20;99530.91;4209295;28;20284;-68
2022/08/27 03:32:12;;;;;;;21.05;18.88;;;;;;;26.83;51.60;99535.63;4209771;28;20233;-68
2022/08/27 03:34:13;;;;;;;22.15;19.80;;;;;;;26.92;51.31;99540.53;4207048;28;20630;-68
2022/08/27 03:36:20;;;;;;;24.75;21.25;;;;;;;27.31;50.59;99539.97;4205260;28;20233;-66
2022/08/27 03:38:22;;;;;;;21.63;19.40;;;;;;;26.96;51.33;99545.19;4207839;28;20230;-68
2022/08/27 03:40:24;;;;;;;22.67;20.30;;;;;;;26.84;51.78;99542.72;4208264;28;20226;-67
2022/08/27 03:42:26;;;;;;;21.38;19.00;;;;;;;26.29;52.64;99546.97;4209743;28;20223;-68
2022/08/27 03:44:28;;;;;;;22.60;20.27;;;;;;;26.53;52.30;99550.84;4205696;28;20234;-68
2022/08/27 03:46:29;;;;;;;21.70;19.50;;;;;;;26.50;52.71;99536.91;4211417;28;20241;-67
2022/08/27 03:48:32;;;;;;;23.40;20.90;;;;;;;26.83;51.95;99535.63;4211296;28;20292;-67
2022/08/27 03:50:37;;;;;;;22.60;20.25;;;;;;;26.75;52.09;99533.44;4208410;28;20238;-67
2022/08/27 03:52:39;;;;;;;23.00;20.45;;;;;;;26.40;52.63;99545.09;4214965;28;20519;-67
2022/08/27 03:54:41;;;;;;;21.73;19.33;;;;;;;26.93;51.24;99540.25;4208437;28;20236;-68
2022/08/27 03:56:43;;;;;;;22.73;19.88;;;;;;;26.52;52.30;99538.34;4213405;28;20234;-67
2022/08/27 03:58:45;;;;;;;21.90;19.65;;;;;;;26.89;51.39;99533.69;4211905;28;20234;-68
2022/08/27 04:00:47;;;;;;;21.10;18.90;;;;;;;27.24;50.92;99532.88;4210108;28;20236;-66
2022/08/27 04:02:49;;;;;;;25.02;20.02;;;;;;;27.01;51.22;99536.97;4207937;28;20222;-66
2022/08/27 04:04:51;;;;;;;21.52;19.38;;;;;;;26.86;51.70;99539.72;4209037;28;20293;-65
2022/08/27 04:06:54;;;;;;;21.58;19.27;;;;;;;26.75;52.26;99541.59;4204779;27;20229;-65
2022/08/27 04:08:59;;;;;;;23.40;20.60;;;;;;;26.95;51.53;99537.25;4205954;28;20235;-66
2022/08/27 04:11:06;;;;;;;22.30;19.98;;;;;;;26.54;52.83;99540.78;4200944;28;20238;-65
2022/08/27 04:13:07;;;;;;;22.70;20.30;;;;;;;27.40;50.44;99530.13;4211504;28;20238;-66
2022/08/27 04:15:11;;;;;;;22.40;20.08;;;;;;;27.41;51.18;99535.28;4198368;28;20721;-65
2022/08/27 04:17:13;;;;;;;21.63;19.33;;;;;;;27.78;50.14;99539.56;4192094;28;20231;-66
2022/08/27 04:19:14;;;;;;;21.83;19.60;;;;;;;27.93;50.00;99544.16;4199318;28;20231;-65
2022/08/27 04:21:16;;;;;;;22.10;19.85;;;;;;;28.05;49.68;99543.03;4195822;28;20235;-66
2022/08/27 04:23:18;;;;;;;22.42;19.02;;;;;;;27.60;50.15;99549.19;4193244;28;20242;-66
2022/08/27 04:25:19;;;;;;;22.40;20.10;;;;;;;27.44;50.57;99553.03;4201245;27;20296;-67
2022/08/27 04:27:21;;;;;;;21.17;18.88;;;;;;;27.48;51.00;99545.94;4206001;28;20242;-67
2022/08/27 04:29:23;;;;;;;23.67;19.90;;;;;;;27.07;51.54;99541.34;4202782;28;20238;-67
2022/08/27 04:31:24;;;;;;;22.25;20.02;;;;;;;27.27;51.02;99545.16;4207762;28;20238;-67
2022/08/27 04:33:26;;;;;;;22.33;19.95;;;;;;;27.22;50.90;99543.25;4209827;28;20606;-67
2022/08/27 04:35:28;;;;;;;22.65;20.35;;;;;;;26.76;52.35;99542.41;4210218;28;20292;-67
2022/08/27 04:37:33;;;;;;;20.90;18.80;;;;;;;26.89;52.04;99536.41;4214457;28;20227;-67
2022/08/27 04:39:35;;;;;;;23.70;21.20;;;;;;;27.12;51.40;99540.53;4209405;28;20231;-67
2022/08/27 04:41:36;;;;;;;22.75;20.45;;;;;;;27.32;50.91;99531.50;4204590;28;20232;-69
2022/08/27 04:43:38;;;;;;;22.48;20.10;;;;;;;27.25;50.98;99530.97;4212769;28;20242;-68
2022/08/27 04:45:45;;;;;;;23.83;21.42;;;;;;;27.16;51.83;99538.91;4212109;28;20235;-68
2022/08/27 04:47:47;;;;;;;23.70;21.20;;;;;;;27.33;51.56;99535.88;4209966;28;20641;-67
2022/08/27 04:49:49;;;;;;;23.77;21.42;;;;;;;27.34;50.92;99536.69;4207735;28;20714;-68
2022/08/27 04:51:51;;;;;;;23.58;21.13;;;;;;;27.49;50.48;99544.84;4210498;28;20225;-68
2022/08/27 04:53:53;;;;;;;24.40;21.98;;;;;;;27.00;52.01;99538.06;4212246;28;20737;-68
2022/08/27 04:55:56;;;;;;;25.75;22.77;;;;;;;26.88;52.05;99538.34;4207857;27;20226;-67
2022/08/27 04:57:58;;;;;;;25.58;22.58;;;;;;;27.25;51.22;99533.72;4210261;28;20230;-68
2022/08/27 05:00:00;;;;;;;23.63;21.13;;;;;;;25.76;54.49;99539.69;4212150;28;20234;-68
2022/08/27 05:02:04;;;;;;;22.75;19.83;;;;;;;25.22;55.84;99528.97;4209843;28;20265;-67
2022/08/27 05:04:06;;;;;;;21.83;19.55;;;;;;;27.07;51.83;99521.44;4206821;28;20313;-68
2022/08/27 05:06:08;;;;;;;23.63;20.60;;;;;;;27.12;51.43;99529.63;4208039;28;20230;-68
2022/08/27 05:08:11;;;;;;;20.58;18.40;;;;;;;27.22;51.23;99537.78;4208869;28;20233;-68
2022/08/27 05:10:13;;;;;;;23.98;20.17;;;;;;;26.80;52.20;99541.59;4209642;28;20230;-68
2022/08/27 05:12:15;;;;;;;22.48;20.10;;;;;;;26.75;52.42;99555.25;4211750;28;20301;-68
2022/08/27 05:14:18;;;;;;;23.85;20.92;;;;;;;26.21;53.67;99550.22;4207368;28;20878;-68
2022/08/27 05:16:21;;;;;;;23.25;20.70;;;;;;;26.05;54.74;99541.16;4207754;28;20231;-67
2022/08/27 05:18:23;;;;;;;23.30;20.45;;;;;;;27.20;51.81;99539.19;4208832;28;20233;-68
2022/08/27 05:20:26;;;;;;;24.83;22.23;;;;;;;27.54;50.99;99544.81;4209569;28;20230;-68
2022/08/27 05:22:27;;;;;;;24.70;22.10;;;;;;;27.27;51.10;99553.34;4208279;28;20234;-68
2022/08/27 05:24:31;;;;;;;23.30;20.90;;;;;;;27.10;52.14;99553.66;4204948;28;20245;-68
2022/08/27 05:26:35;;;;;;;24.70;21.15;;;;;;;27.41;50.93;99554.41;4203967;28;20222;-68
2022/08/27 05:28:37;;;;;;;23.75;21.25;;;;;;;27.25;51.90;99555.53;4207633;28;20232;-68
2022/08/27 05:30:43;;;;;;;23.95;21.50;;;;;;;27.51;51.33;99550.03;4211119;28;20254;-69
2022/08/27 05:32:49;;;;;;;25.20;22.65;;;;;;;27.84;50.59;99551.31;4209115;28;20226;-67
2022/08/27 05:34:51;;;;;;;23.83;21.33;;;;;;;27.78;50.53;99557.88;4206177;28;20237;-68
2022/08/27 05:36:53;;;;;;;24.85;22.17;;;;;;;27.34;51.27;99553.06;4210825;28;20230;-67
2022/08/27 05:38:57;;;;;;;25.92;22.75;;;;;;;27.45;51.15;99560.16;4207933;28;20231;-68
2022/08/27 05:41:08;;;;;;;24.77;22.23;;;;;;;27.53;50.79;99556.84;4209980;28;20233;-67
2022/08/27 05:43:14;;;;;;;24.85;22.27;;;;;;;27.02;52.47;99567.81;4210000;28;20231;-67
2022/08/27 05:45:16;;;;;;;24.63;22.02;;;;;;;27.11;52.26;99555.25;4206811;28;20235;-67
2022/08/27 05:47:18;;;;;;;25.05;22.35;;;;;;;27.51;51.38;99552.75;4209347;28;20226;-67
2022/08/27 05:49:20;;;;;;;26.48;23.63;;;;;;;27.17;52.11;99553.38;4208316;28;20230;-67
2022/08/27 05:51:27;;;;;;;25.90;23.20;;;;;;;27.22;51.79;99551.44;4208991;28;20230;-68
2022/08/27 05:53:29;;;;;;;27.30;22.08;;;;;;;27.68;51.01;99544.28;4208891;28;20233;-68
2022/08/27 05:55:36;;;;;;;24.52;21.75;;;;;;;27.08;52.11;99553.91;4207737;28;20227;-68
2022/08/27 05:57:38;;;;;;;25.20;22.02;;;;;;;26.96;52.78;99541.59;4209990;28;20238;-68
2022/08/27 06:01:59;;;;;;;24.95;22.27;;;;;;;27.19;52.17;99540.25;4210285;28;20305;-68
2022/08/27 06:04:03;;;;;;;26.00;22.55;;;;;;;27.51;51.07;99542.66;4212935;28;20222;-66
2022/08/27 06:06:08;;;;;;;27.02;23.92;;;;;;;27.41;51.23;99543.47;4207229;28;20234;-65
2022/08/27 06:08:10;;;;;;;26.85;23.25;;;;;;;25.92;54.34;99553.38;4208762;28;20265;-66
2022/08/27 06:10:13;;;;;;;26.05;23.27;;;;;;;27.02;52.41;99541.34;4210823;28;20227;-66
2022/08/27 06:12:14;;;;;;;25.63;23.08;;;;;;;27.15;52.18;99540.00;4205948;28;20658;-66
2022/08/27 06:14:16;;;;;;;26.05;23.23;;;;;;;27.61;51.18;99542.66;4209070;28;20226;-66
2022/08/27 06:16:18;;;;;;;27.27;23.58;;;;;;;27.49;51.31;99550.31;4210296;28;20269;-65
2022/08/27 06:18:20;;;;;;;24.63;21.40;;;;;;;26.13;54.44;99555.13;4212262;28;20301;-65
2022/08/27 06:20:22;;;;;;;25.70;21.50;;;;;;;25.63;56.52;99537.44;4206845;28;20235;-68
2022/08/27 06:22:24;;;;;;;23.58;21.08;;;;;;;25.13;56.97;99542.25;4206178;27;20227;-68
2022/08/27 06:24:26;;;;;;;23.35;20.85;;;;;;;26.04;55.59;99524.00;4206740;28;20607;-68
2022/08/27 06:26:28;;;;;;;24.13;20.80;;;;;;;27.20;52.77;99539.19;4209352;28;20234;-68
2022/08/27 06:28:30;;;;;;;23.00;20.40;;;;;;;27.22;52.67;99545.19;4208585;28;20222;-67
2022/08/27 06:30:31;;;;;;;23.90;21.33;;;;;;;27.26;52.07;99548.97;4206604;28;20222;-68
2022/08/27 06:32:33;;;;;;;23.95;21.52;;;;;;;27.79;50.58;99552.16;4209931;28;20692;-67
2022/08/27 06:34:36;;;;;;;27.98;21.30;;;;;;;27.56;51.54;99552.75;4208700;28;20317;-68
2022/08/27 06:36:40;;;;;;;23.38;20.95;;;;;;;26.92;53.27;99559.63;4210804;28;21022;-68
2022/08/27 06:38:42;;;;;;;23.52;20.85;;;;;;;27.03;52.45;99555.81;4210506;28;20260;-67
2022/08/27 06:40:45;;;;;;;23.45;20.35;;;;;;;27.15;52.58;99559.09;4207879;28;20226;-68
2022/08/27 06:42:46;;;;;;;24.10;21.65;;;;;;;26.75;53.23;99565.34;4206454;28;20222;-68
2022/08/27 06:44:48;;;;;;;25.58;22.77;;;;;;;26.88;53.27;99549.25;4209657;28;20233;-68
2022/08/27 06:46:50;;;;;;;24.98;22.38;;;;;;;26.90;53.37;99548.97;4213056;28;20678;-67
2022/08/27 06:48:54;;;;;;;25.50;22.10;;;;;;;25.97;55.04;99561.59;4206134;28;20772;-68
2022/08/27 06:50:56;;;;;;;24.83;22.25;;;;;;;27.17;52.67;99551.44;4204767;28;20230;-67
2022/08/27 06:52:57;;;;;;;23.80;21.08;;;;;;;27.28;52.06;99559.63;4210028;28;20714;-68
2022/08/27 06:54:59;;;;;;;24.67;21.73;;;;;;;27.44;51.79;99562.03;4209799;28;20278;-67
2022/08/27 06:57:00;;;;;;;24.08;21.55;;;;;;;27.13;52.70;99555.84;4208835;28;20234;-67
2022/08/27 06:59:06;;;;;;;24.10;21.33;;;;;;;27.02;52.70;99559.63;4211984;28;20233;-67
2022/08/27 07:01:23;;;;;;;24.73;21.15;;;;;;;27.51;51.53;99563.69;4211071;28;20677;-68
2022/08/27 07:03:25;;;;;;;23.08;20.67;;;;;;;27.41;51.76;99572.72;4209770;28;20276;-68
2022/08/27 07:05:27;;;;;;;24.02;20.83;;;;;;;27.49;51.19;99583.06;4208870;28;20706;-68
2022/08/27 07:07:29;;;;;;;24.23;21.73;;;;;;;27.66;50.91;99579.25;4208634;28;20241;-68
2022/08/27 07:09:40;;;;;;;26.27;22.00;;;;;;;27.81;50.89;99569.06;4208583;28;20471;-68
2022/08/27 07:11:42;;;;;;;24.63;21.50;;;;;;;27.91;51.07;99575.63;4205105;28;20279;-68
2022/08/27 07:13:46;;;;;;;25.35;22.60;;;;;;;27.73;50.92;99582.50;4209209;28;20225;-68
2022/08/27 07:15:47;;;;;;;25.15;21.10;;;;;;;27.68;51.29;99579.78;4206877;28;20295;-68
2022/08/27 07:17:51;;;;;;;27.52;21.48;;;;;;;27.97;50.53;99578.03;4206578;28;20238;-68
2022/08/27 07:19:52;;;;;;;24.23;20.75;;;;;;;27.91;50.51;99581.06;4210794;28;20589;-68
2022/08/27 07:21:55;;;;;;;24.42;21.65;;;;;;;27.85;50.49;99574.78;4211122;28;21312;-68
2022/08/27 07:23:58;;;;;;;23.77;20.75;;;;;;;28.06;50.10;99581.00;4210440;28;20284;-68
2022/08/27 07:26:00;;;;;;;24.10;21.60;;;;;;;27.92;50.68;99589.00;4214035;27;20243;-67
2022/08/27 07:28:02;;;;;;;27.58;22.23;;;;;;;27.92;50.48;99594.47;4208568;28;20230;-67
2022/08/27 07:30:09;;;;;;;25.50;22.27;;;;;;;27.69;51.39;99595.88;4212957;28;20230;-67
2022/08/27 07:32:11;;;;;;;25.75;23.08;;;;;;;27.51;51.49;99586.34;4212430;28;20648;-67
2022/08/27 07:34:12;;;;;;;28.48;24.70;;;;;;;27.52;52.02;99590.72;4213167;28;20229;-68
2022/08/27 07:36:14;;;;;;;31.35;22.67;;;;;;;27.58;51.59;99586.88;4213563;28;20287;-67
2022/08/27 07:38:16;;;;;;;27.95;21.17;;;;;;;27.75;50.80;99583.88;4208984;28;20221;-68
2022/08/27 07:40:18;;;;;;;26.00;20.98;;;;;;;27.64;50.90;99593.19;4204729;28;20229;-68
2022/08/27 07:44:40;;;;;;;22.27;19.10;;;;;;;27.38;50.73;99601.38;4197170;28;20258;-68
2022/08/27 07:46:43;;;;;;;21.80;18.15;;;;;;;27.96;50.18;99597.44;4210048;28;20242;-68
2022/08/27 07:48:49;;;;;;;21.17;18.77;;;;;;;27.49;50.71;99606.84;4209103;28;20648;-68
2022/08/27 07:50:52;;;;;;;24.67;17.95;;;;;;;27.58;50.56;99608.72;4207592;28;20283;-68
2022/08/27 07:52:53;;;;;;;22.70;18.25;;;;;;;27.40;50.99;99614.78;4212251;28;20279;-67
2022/08/27 07:54:55;;;;;;;22.05;16.98;;;;;;;27.05;51.25;99614.47;4207046;28;20230;-67
2022/08/27 07:56:57;;;;;;;19.92;16.25;;;;;;;27.24;50.63;99603.03;4211269;28;20241;-67
2022/08/27 07:58:59;;;;;;;17.75;15.95;;;;;;;27.17;51.37;99599.75;4213738;28;20232;-67
2022/08/27 08:01:01;;;;;;;19.00;15.52;;;;;;;27.30;50.42;99601.09;4212116;28;20238;-67
2022/08/27 08:03:03;;;;;;;18.90;15.88;;;;;;;27.54;50.10;99604.09;4205881;28;20238;-67
2022/08/27 08:05:05;;;;;;;27.65;17.30;;;;;;;27.48;50.88;99611.44;4208708;28;20227;-68
2022/08/27 08:07:07;;;;;;;19.23;17.30;;;;;;;27.31;50.66;99610.94;4204541;28;20230;-68
2022/08/27 08:09:09;;;;;;;20.60;17.52;;;;;;;26.88;51.18;99611.19;4203691;28;20700;-68
2022/08/27 08:11:14;;;;;;;23.55;18.33;;;;;;;27.22;51.73;99602.50;4203394;28;20234;-68
2022/08/27 08:13:17;;;;;;;22.25;17.90;;;;;;;27.16;51.41;99603.56;4208323;28;20905;-68
2022/08/27 08:15:19;;;;;;;22.60;18.20;;;;;;;26.80;52.28;99596.16;4211896;28;20606;-68
2022/08/27 08:17:21;;;;;;;20.08;18.10;;;;;;;26.72;52.12;99602.16;4211851;28;20249;-68
2022/08/27 08:19:23;;;;;;;20.60;18.48;;;;;;;27.42;51.61;99601.66;4209623;28;20234;-67
2022/08/27 08:21:25;;;;;;;20.85;18.65;;;;;;;27.05;52.57;99608.19;4211400;28;20634;-68
2022/08/27 08:23:28;;;;;;;22.50;18.90;;;;;;;27.32;51.88;99601.66;4204868;28;20236;-68
2022/08/27 08:25:29;;;;;;;21.08;18.83;;;;;;;27.08;52.22;99613.16;4206906;28;20242;-68
2022/08/27 08:27:41;;;;;;;21.88;19.60;;;;;;;26.49;53.25;99615.16;4210842;28;20241;-68
2022/08/27 08:29:42;;;;;;;20.63;18.35;;;;;;;26.79;52.80;99616.38;4208289;28;20229;-67
2022/08/27 08:31:45;;;;;;;22.70;19.75;;;;;;;26.52;53.75;99617.41;4198459;28;20231;-68
2022/08/27 08:33:51;;;;;;;22.92;19.58;;;;;;;27.07;52.16;99620.50;4208396;27;20774;-65
2022/08/27 08:35:53;;;;;;;21.83;19.70;;;;;;;26.95;52.71;99619.91;4197389;28;20241;-68
2022/08/27 08:37:55;;;;;;;22.65;20.27;;;;;;;27.19;52.29;99613.94;4192197;28;20235;-65
2022/08/27 08:39:57;;;;;;;22.90;19.48;;;;;;;26.19;54.33;99623.25;4192959;28;20223;-65
2022/08/27 08:42:01;;;;;;;22.58;19.65;;;;;;;26.62;53.82;99610.31;4192660;28;20715;-66
2022/08/27 08:44:13;;;;;;;23.13;20.75;;;;;;;26.09;55.32;99619.38;4193008;28;20223;-66
2022/08/27 08:46:29;;;;;;;22.95;20.75;;;;;;;24.90;57.07;99621.50;4190462;28;20246;-67
2022/08/27 08:48:33;;;;;;;24.70;22.13;;;;;;;25.65;56.16;99616.13;4186180;28;20712;-65
2022/08/27 08:50:43;;;;;;;24.83;22.13;;;;;;;26.15;55.10;99618.31;4188559;28;20231;-65
2022/08/27 08:52:53;;;;;;;23.92;21.55;;;;;;;26.12;55.21;99623.50;4189277;28;20226;-66
2022/08/27 08:55:10;;;;;;;24.75;22.10;;;;;;;25.65;55.32;99633.28;4187014;28;20288;-66
2022/08/27 08:57:21;;;;;;;24.92;22.33;;;;;;;26.47;54.34;99619.25;4196606;28;20711;-65
2022/08/27 08:59:35;;;;;;;26.38;22.85;;;;;;;26.05;55.18;99633.78;4198239;28;20234;-67
2022/08/27 09:01:37;;;;;;;25.98;22.52;;;;;;;26.73;54.21;99633.78;4199484;28;20600;-65
2022/08/27 09:03:41;;;;;;;25.83;21.25;;;;;;;26.12;55.62;99653.47;4197889;28;20227;-66
2022/08/27 09:05:47;;;;;;;23.48;21.05;;;;;;;26.18;55.80;99646.13;4195026;28;20235;-67
2022/08/27 09:08:12;;;;;;;24.25;21.35;;;;;;;25.68;56.71;99640.09;4195999;28;20739;-66
2022/08/27 09:10:43;;;;;;;23.80;21.10;;;;;;;25.58;56.14;99651.75;4194090;28;20265;-66
2022/08/27 09:12:45;;;;;;;23.45;21.05;;;;;;;26.19;54.92;99645.88;4212883;28;20271;-67
2022/08/27 09:15:00;;;;;;;23.60;21.15;;;;;;;26.34;55.32;99636.94;4208557;28;20262;-66
2022/08/27 09:17:04;;;;;;;26.63;22.45;;;;;;;25.75;56.37;99646.97;4211236;28;20245;-66
2022/08/27 09:19:12;;;;;;;23.80;21.38;;;;;;;24.47;58.73;99643.84;4209104;28;20702;-66
2022/08/27 09:21:40;;;;;;;22.67;20.35;;;;;;;25.78;56.58;99640.19;4210157;28;20296;-66
2022/08/27 09:23:56;;;;;;;23.65;21.15;;;;;;;25.55;56.58;99647.63;4208193;28;20227;-67
2022/08/27 09:25:57;;;;;;;24.42;20.85;;;;;;;26.70;53.86;99642.50;4204673;28;20234;-67
2022/08/27 09:28:05;;;;;;;23.15;20.95;;;;;;;26.60;54.42;99656.94;4208262;28;20230;-66
2022/08/27 09:30:17;;;;;;;23.90;21.23;;;;;;;25.96;55.61;99664.28;4204850;28;20898;-66
2022/08/27 09:32:30;;;;;;;22.40;20.08;;;;;;;25.31;56.82;99676.28;4209972;28;20234;-67
2022/08/27 09:34:38;;;;;;;23.88;20.08;;;;;;;25.40;56.72;99666.56;4204020;28;20230;-65
2022/08/27 09:36:51;;;;;;;25.27;22.75;;;;;;;25.37;56.43;99667.94;4202578;28;20928;-66